Zwolle, Louisiana
Current Conditions -  °F | °C
As of 2:56 PM on Saturday 25 Oct 2014 (Local Time) from KAQV Reporting Station
Clear Clear  
Wind Chill: 28°   Ceiling: Unl
Heat Index: 28°   Visibility: 10mi
Dew Point: 10°   Wind: 0mph
Humidity: 32%   Direction: NA
Pressure: 30.09"   Gusts: NA
Location:  31.63°N, 93.64°W
Report Text: KAQV 251956Z AUTO 00000KT 10SM CLR 28/10 A3009 RMK AO2 SLP188 T02830100
Loading
Personal Weather Stations






























Interactive Weather Map
Tropical Storm Tracking
New forecast layout! Learn more

10-Day Weather Forecast

Advertisements
Track Severe Weather on mobile